Time;durP1;ratioP1;P1;durP2;ratioP2;P2;SDS_P1;SDS_P2;PMS_P1;PMS_P2;Temp;Humidity;BMP_temperature;BMP_pressure;BME280_temperature;BME280_humidity;BME280_pressure;Samples;Min_cycle;Max_cycle;Signal;HPM_P1;HPM_P2
2023/08/19 00:00:59;;;;;;;19.58;13.50;;;23.70;93.30;;;;;;5116620;28;20106;-78
2023/08/19 00:03:25;;;;;;;20.95;13.93;;;23.70;93.30;;;;;;5116413;28;20049;-78
2023/08/19 00:05:51;;;;;;;19.98;13.52;;;23.70;93.30;;;;;;5099509;28;20031;-78
2023/08/19 00:08:17;;;;;;;21.85;13.85;;;23.70;93.30;;;;;;5099584;28;20028;-78
2023/08/19 00:10:43;;;;;;;17.75;13.43;;;23.70;93.30;;;;;;5116163;28;20050;-78
2023/08/19 00:13:09;;;;;;;19.45;14.13;;;23.70;93.30;;;;;;5099509;28;20045;-79
2023/08/19 00:15:34;;;;;;;20.27;14.40;;;23.70;93.30;;;;;;5134340;28;20038;-78
2023/08/19 00:18:01;;;;;;;19.58;13.55;;;23.70;93.30;;;;;;5099474;28;20024;-78
2023/08/19 00:20:28;;;;;;;21.52;13.75;;;23.70;93.30;;;;;;5099459;28;20028;-78
2023/08/19 00:22:57;;;;;;;21.58;14.27;;;23.70;93.30;;;;;;5116425;28;20112;-78
2023/08/19 00:25:24;;;;;;;21.90;14.68;;;23.70;93.30;;;;;;5116160;28;20028;-78
2023/08/19 00:27:51;;;;;;;21.90;15.13;;;23.60;93.40;;;;;;5099540;28;20032;-78
2023/08/19 00:30:17;;;;;;;23.58;15.32;;;23.60;93.50;;;;;;5116397;28;20032;-78
2023/08/19 00:32:44;;;;;;;22.67;15.40;;;23.60;93.60;;;;;;5115984;28;20036;-78
2023/08/19 00:35:09;;;;;;;25.60;16.40;;;23.60;93.70;;;;;;5099389;28;20087;-78
2023/08/19 00:37:36;;;;;;;23.40;16.08;;;23.60;93.80;;;;;;5116062;28;20042;-78
2023/08/19 00:40:05;;;;;;;22.77;15.65;;;23.70;93.80;;;;;;5116138;28;20027;-79
2023/08/19 00:42:31;;;;;;;23.27;16.17;;;23.70;93.80;;;;;;5133935;28;20032;-79
2023/08/19 00:44:57;;;;;;;24.23;16.85;;;23.70;93.80;;;;;;5115918;28;20027;-78
2023/08/19 00:47:24;;;;;;;21.55;15.10;;;23.70;93.80;;;;;;5115966;28;20027;-78
2023/08/19 00:49:50;;;;;;;25.77;16.38;;;23.70;93.80;;;;;;5116053;28;20031;-79
2023/08/19 00:52:17;;;;;;;22.40;16.58;;;23.70;93.90;;;;;;5115807;28;20036;-79
2023/08/19 00:54:42;;;;;;;25.70;16.42;;;23.70;93.90;;;;;;5133878;28;20028;-78
2023/08/19 00:57:08;;;;;;;25.05;16.92;;;23.70;93.90;;;;;;5133833;28;20071;-78
2023/08/19 00:59:34;;;;;;;23.55;16.00;;;23.70;93.90;;;;;;5099020;28;20030;-78
2023/08/19 01:02:00;;;;;;;24.08;16.10;;;23.70;93.90;;;;;;5133767;28;20031;-79
2023/08/19 01:04:25;;;;;;;24.20;16.23;;;23.70;93.90;;;;;;5115871;28;20046;-79
2023/08/19 01:06:54;;;;;;;22.60;15.98;;;23.60;93.80;;;;;;5115807;28;20032;-78
2023/08/19 01:09:50;;;;;;;23.42;16.15;;;23.60;93.80;;;;;;5135799;28;20107;-78
2023/08/19 01:12:34;;;;;;;23.05;15.60;;;23.60;93.80;;;;;;5137792;28;20031;-78
2023/08/19 01:15:06;;;;;;;24.85;15.77;;;23.60;94.00;;;;;;5137796;28;20027;-78
2023/08/19 01:17:33;;;;;;;23.27;16.63;;;23.60;94.10;;;;;;5137940;28;20037;-78
2023/08/19 01:19:59;;;;;;;21.95;15.77;;;23.60;94.10;;;;;;5119970;28;20053;-78
2023/08/19 01:22:52;;;;;;;24.55;16.83;;;23.60;94.10;;;;;;5119802;28;20379;-79
2023/08/19 01:25:18;;;;;;;23.95;16.15;;;23.60;94.10;;;;;;5119564;28;20020;-79
2023/08/19 01:27:44;;;;;;;25.60;17.08;;;23.60;94.10;;;;;;5119442;28;20032;-79
2023/08/19 01:30:10;;;;;;;23.42;16.90;;;23.60;94.10;;;;;;5119528;28;20031;-79
2023/08/19 01:32:37;;;;;;;25.33;16.77;;;23.60;94.20;;;;;;5137516;28;20038;-78
2023/08/19 01:35:04;;;;;;;30.13;16.65;;;23.60;94.20;;;;;;5119248;28;20080;-78
2023/08/19 01:37:50;;;;;;;24.85;16.30;;;23.60;94.20;;;;;;5119385;28;20020;-79
2023/08/19 01:40:16;;;;;;;24.95;16.77;;;23.60;94.10;;;;;;5119231;28;20027;-78
2023/08/19 01:42:43;;;;;;;23.92;15.85;;;23.60;94.20;;;;;;5119252;28;20028;-78
2023/08/19 01:45:09;;;;;;;23.08;16.15;;;23.60;94.20;;;;;;5102154;28;20038;-79
2023/08/19 01:47:38;;;;;;;25.42;16.50;;;23.60;94.20;;;;;;5102239;28;20023;-79
2023/08/19 01:50:07;;;;;;;23.23;16.58;;;23.60;94.20;;;;;;5118980;28;20042;-78
2023/08/19 01:52:33;;;;;;;26.83;17.00;;;23.60;94.30;;;;;;5119022;28;20032;-78
2023/08/19 01:54:59;;;;;;;24.15;16.70;;;23.60;94.30;;;;;;5119048;28;20080;-79
2023/08/19 01:57:26;;;;;;;25.02;16.88;;;23.60;94.30;;;;;;5137004;28;20020;-78
2023/08/19 01:59:52;;;;;;;23.98;16.88;;;23.60;94.30;;;;;;5118912;28;20043;-79
2023/08/19 02:02:18;;;;;;;26.67;17.20;;;23.60;94.30;;;;;;5118708;28;20032;-79
2023/08/19 02:04:43;;;;;;;25.15;17.48;;;23.60;94.30;;;;;;5118923;28;20055;-78
2023/08/19 02:07:09;;;;;;;23.85;17.38;;;23.60;94.30;;;;;;5118894;28;20031;-78
2023/08/19 02:09:35;;;;;;;27.35;18.02;;;23.60;94.30;;;;;;5117017;28;20046;-79
2023/08/19 02:12:00;;;;;;;25.05;17.17;;;23.60;94.30;;;;;;5118459;28;20048;-79
2023/08/19 02:14:26;;;;;;;26.80;16.77;;;23.60;94.40;;;;;;5101741;28;20099;-78
2023/08/19 02:16:52;;;;;;;26.75;16.80;;;23.60;94.40;;;;;;5118656;28;20065;-79
2023/08/19 02:19:17;;;;;;;25.23;17.20;;;23.60;94.50;;;;;;5117861;28;20097;-78
2023/08/19 02:21:43;;;;;;;25.35;17.17;;;23.60;94.50;;;;;;5136529;28;20023;-78
2023/08/19 02:24:08;;;;;;;25.17;16.88;;;23.60;94.60;;;;;;5136461;28;20066;-78
2023/08/19 02:26:34;;;;;;;24.30;16.08;;;23.60;94.60;;;;;;5118555;28;20039;-78
2023/08/19 02:29:00;;;;;;;21.85;15.95;;;23.60;94.70;;;;;;5118476;28;20028;-78
2023/08/19 02:31:26;;;;;;;26.25;17.65;;;23.60;94.70;;;;;;5118456;28;20019;-79
2023/08/19 02:33:52;;;;;;;26.88;17.23;;;23.60;94.80;;;;;;5118034;28;20058;-78
2023/08/19 02:36:19;;;;;;;25.55;17.42;;;23.60;94.80;;;;;;5118165;28;20020;-78
2023/08/19 02:38:44;;;;;;;25.85;16.50;;;23.50;94.90;;;;;;5101495;28;20022;-78
2023/08/19 02:41:10;;;;;;;24.00;16.33;;;23.50;95.00;;;;;;5118070;28;20023;-78
2023/08/19 02:43:36;;;;;;;25.17;16.70;;;23.60;95.00;;;;;;5136092;28;20050;-78
2023/08/19 02:46:02;;;;;;;24.80;16.88;;;23.50;95.00;;;;;;5136059;28;20047;-78
2023/08/19 02:48:28;;;;;;;22.08;15.80;;;23.50;95.00;;;;;;5136012;28;20079;-78
2023/08/19 02:50:54;;;;;;;24.63;16.77;;;23.60;95.00;;;;;;5100943;28;20042;-78
2023/08/19 02:53:20;;;;;;;24.83;15.85;;;23.60;95.00;;;;;;5117779;28;20394;-79
2023/08/19 02:55:46;;;;;;;25.02;16.83;;;23.60;95.00;;;;;;5117877;28;20024;-79
2023/08/19 02:58:13;;;;;;;23.77;16.67;;;23.60;95.00;;;;;;5117935;28;20028;-79
2023/08/19 03:00:39;;;;;;;24.40;16.42;;;23.60;95.10;;;;;;5101068;28;20083;-78
2023/08/19 03:03:05;;;;;;;22.95;15.52;;;23.60;95.10;;;;;;5100690;28;20102;-78
2023/08/19 03:05:39;;;;;;;22.30;16.27;;;23.50;95.10;;;;;;5135647;28;20099;-79
2023/08/19 03:08:05;;;;;;;23.50;16.50;;;23.50;95.20;;;;;;5117663;28;20039;-78
2023/08/19 03:10:35;;;;;;;22.33;15.00;;;23.50;95.20;;;;;;5096944;28;20047;-78
2023/08/19 03:13:02;;;;;;;22.50;15.40;;;23.50;95.30;;;;;;5115000;28;20044;-78
2023/08/19 03:15:29;;;;;;;21.40;15.80;;;23.50;95.30;;;;;;5115061;28;20030;-78
2023/08/19 03:17:54;;;;;;;21.20;14.95;;;23.50;95.20;;;;;;5114968;28;20075;-78
2023/08/19 03:20:20;;;;;;;24.45;16.25;;;23.50;95.30;;;;;;5114888;28;20024;-78
2023/08/19 03:22:46;;;;;;;22.83;15.63;;;23.50;95.30;;;;;;5113971;28;20039;-78
2023/08/19 03:25:11;;;;;;;24.45;15.70;;;23.50;95.40;;;;;;5096876;28;20091;-79
2023/08/19 03:27:37;;;;;;;23.80;16.15;;;23.40;95.40;;;;;;5113830;28;20028;-78
2023/08/19 03:30:04;;;;;;;18.27;14.32;;;23.50;95.40;;;;;;5113799;28;20048;-78
2023/08/19 03:32:30;;;;;;;23.83;16.50;;;23.40;95.40;;;;;;5113729;28;20043;-79
2023/08/19 03:34:56;;;;;;;23.08;15.20;;;23.50;95.40;;;;;;5096741;28;20024;-79
2023/08/19 03:37:22;;;;;;;21.55;14.65;;;23.50;95.50;;;;;;5113637;28;20020;-78
2023/08/19 03:39:47;;;;;;;24.02;14.90;;;23.50;95.50;;;;;;5113538;28;20422;-78
2023/08/19 03:42:13;;;;;;;21.08;14.63;;;23.50;95.50;;;;;;5113481;28;20032;-79
2023/08/19 03:44:39;;;;;;;25.40;15.52;;;23.50;95.50;;;;;;5113652;28;20032;-78
2023/08/19 03:47:04;;;;;;;22.08;14.73;;;23.50;95.50;;;;;;5113616;28;20028;-79
2023/08/19 03:49:30;;;;;;;23.33;14.93;;;23.50;95.40;;;;;;5114459;28;20032;-78
2023/08/19 03:51:55;;;;;;;19.02;14.93;;;23.60;95.40;;;;;;5113366;28;20028;-79
2023/08/19 03:54:21;;;;;;;20.60;14.40;;;23.50;95.40;;;;;;5096356;28;20031;-78
2023/08/19 03:56:46;;;;;;;23.52;13.82;;;23.50;95.40;;;;;;5096404;28;20021;-78
2023/08/19 03:59:12;;;;;;;21.02;14.35;;;23.60;95.40;;;;;;5113270;28;20072;-78
2023/08/19 04:01:39;;;;;;;22.17;13.48;;;23.60;95.40;;;;;;5113208;28;20103;-79
2023/08/19 04:04:06;;;;;;;20.95;13.68;;;23.50;95.40;;;;;;5114185;28;20016;-79
2023/08/19 04:06:32;;;;;;;19.55;13.70;;;23.60;95.40;;;;;;5114068;28;20027;-79
2023/08/19 04:08:58;;;;;;;20.85;13.85;;;23.60;95.40;;;;;;5096199;28;20024;-79
2023/08/19 04:11:24;;;;;;;19.25;13.60;;;23.60;95.40;;;;;;5112858;28;20078;-79
2023/08/19 04:13:49;;;;;;;18.65;13.70;;;23.60;95.40;;;;;;5095969;28;20035;-79
2023/08/19 04:16:15;;;;;;;19.88;14.15;;;23.50;95.30;;;;;;5112848;28;20020;-79
2023/08/19 04:18:41;;;;;;;20.95;13.55;;;23.50;95.30;;;;;;5113886;28;20024;-79
2023/08/19 04:21:08;;;;;;;21.35;14.60;;;23.60;95.80;;;;;;5095898;28;20039;-79
2023/08/19 04:23:35;;;;;;;20.85;14.10;;;23.50;95.40;;;;;;5096101;28;20036;-79
2023/08/19 04:26:01;;;;;;;18.70;13.70;;;23.50;95.40;;;;;;5113797;28;20028;-79
2023/08/19 04:28:26;;;;;;;19.45;13.45;;;23.50;95.40;;;;;;5096054;28;20028;-79
2023/08/19 04:31:00;;;;;;;20.75;15.27;;;23.50;95.80;;;;;;5095817;28;20476;-79
2023/08/19 04:33:26;;;;;;;18.30;13.70;;;23.50;95.40;;;;;;5112580;28;20020;-78
2023/08/19 04:35:52;;;;;;;19.85;13.68;;;23.50;95.40;;;;;;5112644;28;20028;-78
2023/08/19 04:38:17;;;;;;;18.65;14.10;;;23.50;95.40;;;;;;5112563;28;20028;-79
2023/08/19 04:40:43;;;;;;;21.77;13.65;;;23.50;95.40;;;;;;5095701;28;20024;-79
2023/08/19 04:43:08;;;;;;;18.70;13.48;;;23.50;95.40;;;;;;5112295;28;20085;-78
2023/08/19 04:45:34;;;;;;;19.67;13.40;;;23.60;95.40;;;;;;5113522;28;20024;-79
2023/08/19 04:47:59;;;;;;;20.35;14.35;;;23.50;95.30;;;;;;5112505;28;20082;-79
2023/08/19 04:50:25;;;;;;;21.00;13.05;;;23.50;95.30;;;;;;5095649;28;20059;-79
2023/08/19 04:52:51;;;;;;;17.67;13.30;;;23.50;95.40;;;;;;5112414;28;20104;-79
2023/08/19 04:55:16;;;;;;;18.98;13.40;;;23.50;95.40;;;;;;5095683;28;20028;-79
2023/08/19 04:57:42;;;;;;;18.17;12.93;;;23.50;95.40;;;;;;5112482;28;20352;-79
2023/08/19 05:00:12;;;;;;;18.08;13.27;;;23.50;95.40;;;;;;5112558;28;20043;-78
2023/08/19 05:02:38;;;;;;;21.08;14.00;;;23.50;95.40;;;;;;5112451;28;20030;-79
2023/08/19 05:05:04;;;;;;;22.38;13.43;;;23.50;95.50;;;;;;5113382;28;20079;-79
2023/08/19 05:07:30;;;;;;;19.67;13.18;;;23.50;95.50;;;;;;5112314;28;20035;-78
2023/08/19 05:09:56;;;;;;;22.02;13.50;;;23.50;95.50;;;;;;5112432;28;20032;-79
2023/08/19 05:12:23;;;;;;;21.10;13.48;;;23.50;95.50;;;;;;5095267;28;20048;-79
2023/08/19 05:14:49;;;;;;;20.42;13.55;;;23.50;95.50;;;;;;5112260;28;20027;-79
2023/08/19 05:17:14;;;;;;;19.35;13.60;;;23.50;95.60;;;;;;5095364;28;20024;-79
2023/08/19 05:19:40;;;;;;;17.98;13.07;;;23.50;95.90;;;;;;5112331;28;20026;-79
2023/08/19 05:22:06;;;;;;;20.73;13.20;;;23.50;95.60;;;;;;5095391;28;20058;-79
2023/08/19 05:24:32;;;;;;;16.95;12.35;;;23.50;95.60;;;;;;5095358;28;20547;-79
2023/08/19 05:26:59;;;;;;;22.40;12.85;;;23.40;95.60;;;;;;5113164;28;20020;-79
2023/08/19 05:29:24;;;;;;;17.85;13.20;;;23.40;95.50;;;;;;5113124;28;20024;-79
2023/08/19 05:31:50;;;;;;;18.55;13.18;;;23.40;95.60;;;;;;5113060;28;20103;-78
2023/08/19 05:34:16;;;;;;;19.15;13.30;;;23.40;95.60;;;;;;5112068;28;20028;-78
2023/08/19 05:36:41;;;;;;;19.88;13.13;;;23.40;95.60;;;;;;5112184;28;20020;-79
2023/08/19 05:39:07;;;;;;;16.50;11.90;;;23.40;95.60;;;;;;5112026;28;20123;-78
2023/08/19 05:41:33;;;;;;;21.50;13.52;;;23.40;95.50;;;;;;5112236;28;20031;-79
2023/08/19 05:43:59;;;;;;;19.85;13.35;;;23.50;95.60;;;;;;5111972;28;20028;-78
2023/08/19 05:46:25;;;;;;;21.00;13.32;;;23.40;95.50;;;;;;5111953;28;20016;-78
2023/08/19 05:48:50;;;;;;;17.40;12.48;;;23.40;95.60;;;;;;5112002;28;20032;-79
2023/08/19 05:51:16;;;;;;;20.45;13.02;;;23.40;95.50;;;;;;5113048;28;20051;-79
2023/08/19 05:53:42;;;;;;;17.83;12.75;;;23.50;95.50;;;;;;5094977;28;20055;-79
2023/08/19 05:56:08;;;;;;;18.50;12.45;;;23.50;95.50;;;;;;5115085;28;20084;-79
2023/08/19 05:58:34;;;;;;;20.35;12.02;;;23.50;95.50;;;;;;5115670;28;20022;-78
2023/08/19 06:01:03;;;;;;;19.58;11.88;;;23.50;95.40;;;;;;5116496;28;20016;-77
2023/08/19 06:03:28;;;;;;;17.50;11.75;;;23.50;95.40;;;;;;5115408;28;20087;-79
2023/08/19 06:05:54;;;;;;;17.67;12.45;;;23.50;95.40;;;;;;5098647;28;20059;-77
2023/08/19 06:08:20;;;;;;;16.83;12.40;;;23.50;95.40;;;;;;5098455;28;20123;-78
2023/08/19 06:10:46;;;;;;;18.35;11.68;;;23.50;95.50;;;;;;5121643;28;20099;-77
2023/08/19 06:13:12;;;;;;;18.80;12.27;;;23.50;95.50;;;;;;5101704;28;20023;-78
2023/08/19 06:15:38;;;;;;;17.95;12.10;;;23.50;95.50;;;;;;5101800;28;20015;-77
2023/08/19 06:18:04;;;;;;;17.13;12.30;;;23.60;95.50;;;;;;5136778;28;20027;-78
2023/08/19 06:20:30;;;;;;;17.63;12.23;;;23.60;95.50;;;;;;5118496;28;20024;-79
2023/08/19 06:22:55;;;;;;;19.92;12.73;;;23.60;95.60;;;;;;5118549;28;20099;-79
2023/08/19 06:25:21;;;;;;;18.70;14.30;;;23.60;95.50;;;;;;5118520;28;20031;-80
2023/08/19 06:27:47;;;;;;;18.42;12.43;;;23.60;95.60;;;;;;5118534;28;20032;-80
2023/08/19 06:30:13;;;;;;;18.85;12.90;;;23.60;95.70;;;;;;5118449;28;20032;-81
2023/08/19 06:32:39;;;;;;;18.80;13.10;;;23.60;95.60;;;;;;5101461;28;20050;-80
2023/08/19 06:35:05;;;;;;;19.05;13.55;;;23.60;95.70;;;;;;5118362;28;20032;-81
2023/08/19 06:37:33;;;;;;;18.63;12.82;;;23.70;95.70;;;;;;5118157;28;20031;-81
2023/08/19 06:40:06;;;;;;;17.17;12.07;;;23.70;96.10;;;;;;5118148;28;20027;-82
2023/08/19 06:42:34;;;;;;;19.05;12.77;;;23.70;95.70;;;;;;5118173;28;20043;-83
2023/08/19 06:45:00;;;;;;;17.58;12.38;;;23.70;95.70;;;;;;5136109;28;20028;-80
2023/08/19 06:47:30;;;;;;;18.40;11.52;;;23.70;95.70;;;;;;5101073;28;20077;-80
2023/08/19 06:49:56;;;;;;;18.80;11.77;;;23.70;95.60;;;;;;5117938;28;20024;-80
2023/08/19 06:52:22;;;;;;;15.88;11.55;;;23.70;95.60;;;;;;5135891;28;20058;-81
2023/08/19 06:54:48;;;;;;;18.17;11.93;;;23.70;95.60;;;;;;5101016;28;20040;-81
2023/08/19 06:57:35;;;;;;;17.83;10.77;;;23.80;95.50;;;;;;5135843;28;20016;-80
2023/08/19 07:00:10;;;;;;;13.52;10.68;;;23.90;95.20;;;;;;5117803;28;20053;-80
2023/08/19 07:02:37;;;;;;;14.27;10.32;;;23.90;95.20;;;;;;5135967;28;20038;-80
2023/08/19 07:05:17;;;;;;;14.48;10.25;;;23.80;95.30;;;;;;5118027;28;20028;-80
2023/08/19 07:07:52;;;;;;;14.13;10.30;;;23.90;95.10;;;;;;5117550;28;20034;-80
2023/08/19 07:10:21;;;;;;;17.55;11.57;;;23.90;95.40;;;;;;5117633;28;20047;-79
2023/08/19 07:12:47;;;;;;;18.63;10.70;;;23.90;95.20;;;;;;5117420;28;20104;-79
2023/08/19 07:15:14;;;;;;;15.20;10.38;;;23.90;94.90;;;;;;5117439;28;20051;-79
2023/08/19 07:17:47;;;;;;;17.65;10.80;;;24.00;94.90;;;;;;5117445;28;20023;-79
2023/08/19 07:20:19;;;;;;;16.67;11.20;;;24.00;94.90;;;;;;5135588;28;20054;-79
2023/08/19 07:22:47;;;;;;;16.77;11.02;;;24.00;95.10;;;;;;5135410;28;20053;-79
2023/08/19 07:25:13;;;;;;;16.98;11.07;;;24.10;95.10;;;;;;5135293;28;20045;-79
2023/08/19 07:27:42;;;;;;;13.63;10.18;;;24.10;94.90;;;;;;5135278;28;20024;-78
2023/08/19 07:30:08;;;;;;;18.05;11.55;;;24.10;94.80;;;;;;5117157;28;20043;-79
2023/08/19 07:32:36;;;;;;;16.02;10.63;;;24.20;94.70;;;;;;5117329;28;20031;-79
2023/08/19 07:35:03;;;;;;;19.55;11.52;;;24.20;94.60;;;;;;5100060;28;20506;-79
2023/08/19 07:37:29;;;;;;;16.80;10.85;;;24.30;94.70;;;;;;5117150;28;20096;-79
2023/08/19 07:39:56;;;;;;;20.30;10.35;;;24.30;94.80;;;;;;5100169;28;20020;-78
2023/08/19 07:42:21;;;;;;;14.55;10.32;;;24.40;94.70;;;;;;5116824;28;20403;-79
2023/08/19 07:44:47;;;;;;;17.20;10.63;;;24.50;94.50;;;;;;5100056;28;20028;-79
2023/08/19 07:47:12;;;;;;;16.40;10.48;;;24.50;94.40;;;;;;5099872;28;20097;-79
2023/08/19 07:49:38;;;;;;;15.00;9.38;;;24.60;94.40;;;;;;5099827;28;20028;-79
2023/08/19 07:52:05;;;;;;;13.30;9.68;;;24.70;94.20;;;;;;5099860;28;20042;-79
2023/08/19 07:54:31;;;;;;;12.32;9.75;;;24.80;94.00;;;;;;5116651;28;20031;-79
2023/08/19 07:56:58;;;;;;;14.18;9.50;;;24.90;94.10;;;;;;5134709;28;20043;-79
2023/08/19 07:59:25;;;;;;;14.13;9.20;;;25.00;94.00;;;;;;5116651;28;20024;-77
2023/08/19 08:01:51;;;;;;;15.00;9.20;;;25.20;93.50;;;;;;5116814;28;20045;-78
2023/08/19 08:04:16;;;;;;;13.63;9.77;;;25.30;93.20;;;;;;5099579;28;20050;-77
2023/08/19 08:06:42;;;;;;;13.18;9.57;;;25.50;93.20;;;;;;5116628;28;20039;-78
2023/08/19 08:09:08;;;;;;;14.68;9.95;;;25.60;92.90;;;;;;5116372;28;20091;-77
2023/08/19 08:11:34;;;;;;;13.27;9.50;;;25.60;92.30;;;;;;5116333;28;20047;-78
2023/08/19 08:13:59;;;;;;;14.82;8.95;;;25.70;92.30;;;;;;5099365;28;20066;-77
2023/08/19 08:16:25;;;;;;;12.55;10.07;;;25.70;92.40;;;;;;5116478;28;20498;-78
2023/08/19 08:18:51;;;;;;;12.77;9.07;;;25.90;92.60;;;;;;5115814;28;20020;-78
2023/08/19 08:21:20;;;;;;;14.20;10.02;;;26.00;92.60;;;;;;5082589;28;20038;-78
2023/08/19 08:23:45;;;;;;;12.35;9.60;;;26.20;92.80;;;;;;5116546;28;20049;-78
2023/08/19 08:26:11;;;;;;;16.45;9.85;;;26.20;92.00;;;;;;5082898;28;20024;-78
2023/08/19 08:28:37;;;;;;;10.57;8.70;;;26.20;92.10;;;;;;5099230;28;20132;-78
2023/08/19 08:31:03;;;;;;;13.80;9.00;;;26.20;91.40;;;;;;5134167;28;20032;-78
2023/08/19 08:33:28;;;;;;;11.82;8.75;;;26.10;91.50;;;;;;5099210;28;20027;-78
2023/08/19 08:35:54;;;;;;;12.70;8.40;;;26.10;91.50;;;;;;5099149;28;20031;-78
2023/08/19 08:38:20;;;;;;;10.43;7.72;;;26.10;91.50;;;;;;5099189;28;20027;-79
2023/08/19 08:40:45;;;;;;;10.65;8.25;;;26.10;91.50;;;;;;5134045;28;20024;-79
2023/08/19 08:43:13;;;;;;;12.48;7.93;;;26.10;91.60;;;;;;5099200;28;20035;-79
2023/08/19 08:45:40;;;;;;;9.98;7.57;;;26.10;91.60;;;;;;5115956;28;20527;-78
2023/08/19 08:48:07;;;;;;;12.60;8.60;;;26.00;91.70;;;;;;5099040;28;20020;-79
2023/08/19 08:50:34;;;;;;;10.82;7.60;;;26.00;91.90;;;;;;5099304;28;20094;-79
2023/08/19 08:53:00;;;;;;;11.65;8.50;;;26.00;91.70;;;;;;5115956;28;20028;-79
2023/08/19 08:55:26;;;;;;;11.45;9.07;;;26.00;91.90;;;;;;5099071;28;20019;-79
2023/08/19 08:57:51;;;;;;;13.88;8.48;;;26.00;92.10;;;;;;5099092;28;20043;-78
2023/08/19 09:00:17;;;;;;;11.48;8.50;;;26.00;92.20;;;;;;5115771;28;20053;-79
2023/08/19 09:02:44;;;;;;;12.77;9.30;;;25.90;92.20;;;;;;5115791;28;20027;-79
2023/08/19 09:05:12;;;;;;;10.95;8.75;;;25.90;92.40;;;;;;5133799;28;20024;-79
2023/08/19 09:07:40;;;;;;;17.98;8.98;;;25.90;92.30;;;;;;5099056;28;20023;-79
2023/08/19 09:10:13;;;;;;;12.77;8.73;;;25.90;92.10;;;;;;5115744;28;20028;-78
2023/08/19 09:12:42;;;;;;;14.18;8.38;;;25.90;92.20;;;;;;5098510;28;20051;-79
2023/08/19 09:15:11;;;;;;;14.35;9.25;;;25.90;92.40;;;;;;5133715;28;20027;-79
2023/08/19 09:17:38;;;;;;;12.65;8.95;;;25.90;92.60;;;;;;5133671;28;20020;-78
2023/08/19 09:20:04;;;;;;;15.65;9.75;;;25.80;92.70;;;;;;5115968;28;20083;-79
2023/08/19 09:22:29;;;;;;;15.85;10.13;;;25.70;93.10;;;;;;5082117;28;20034;-79
2023/08/19 09:24:56;;;;;;;16.35;10.20;;;25.70;93.20;;;;;;5115780;28;20051;-79
2023/08/19 09:27:30;;;;;;;14.70;9.65;;;25.70;93.10;;;;;;5133550;28;20023;-79
2023/08/19 09:29:58;;;;;;;13.68;9.70;;;25.60;93.10;;;;;;5117171;28;20034;-78
2023/08/19 09:32:32;;;;;;;15.32;9.43;;;25.60;93.20;;;;;;5137463;28;20050;-78
2023/08/19 09:35:05;;;;;;;13.35;9.20;;;25.60;93.20;;;;;;5119459;28;20028;-79
2023/08/19 09:37:32;;;;;;;15.60;9.38;;;25.60;93.20;;;;;;5103246;28;20026;-79
2023/08/19 09:39:58;;;;;;;12.98;9.30;;;25.60;93.20;;;;;;5119509;28;20023;-79
2023/08/19 09:42:24;;;;;;;12.38;9.45;;;25.60;93.10;;;;;;5137341;28;20024;-79
2023/08/19 09:44:51;;;;;;;13.82;9.10;;;25.70;93.20;;;;;;5119190;28;20059;-79
2023/08/19 09:47:16;;;;;;;14.30;9.52;;;25.70;93.20;;;;;;5102185;28;20047;-78
2023/08/19 09:49:42;;;;;;;14.35;9.63;;;25.80;93.20;;;;;;5102210;28;20032;-79
2023/08/19 09:52:16;;;;;;;14.32;9.15;;;25.80;93.20;;;;;;5102152;28;20088;-76
2023/08/19 09:54:48;;;;;;;14.35;9.75;;;25.80;93.10;;;;;;5102282;28;20020;-76
2023/08/19 09:57:14;;;;;;;14.82;10.02;;;25.80;93.20;;;;;;5119070;28;20020;-76
2023/08/19 09:59:40;;;;;;;15.73;10.00;;;25.90;93.10;;;;;;5118898;28;20026;-76
2023/08/19 10:02:10;;;;;;;16.45;10.25;;;25.90;93.30;;;;;;5118809;28;20015;-76
2023/08/19 10:04:35;;;;;;;18.63;11.52;;;25.90;93.10;;;;;;5118895;28;20083;-75
2023/08/19 10:07:04;;;;;;;15.98;11.15;;;25.90;92.90;;;;;;5118936;28;20031;-75
2023/08/19 10:09:33;;;;;;;16.42;11.15;;;25.90;93.10;;;;;;5118687;28;20027;-75
2023/08/19 10:12:01;;;;;;;16.13;11.18;;;26.00;93.30;;;;;;5136365;28;20040;-76
2023/08/19 10:14:31;;;;;;;17.00;11.70;;;26.00;92.90;;;;;;5136654;28;20050;-77
2023/08/19 10:17:04;;;;;;;16.15;10.93;;;26.10;93.20;;;;;;5136664;28;20208;-76
2023/08/19 10:19:37;;;;;;;14.48;11.48;;;26.20;93.30;;;;;;5136689;28;20024;-76
2023/08/19 10:22:03;;;;;;;17.20;11.98;;;26.30;93.40;;;;;;5136596;28;20026;-76
2023/08/19 10:24:29;;;;;;;15.50;11.32;;;26.40;93.10;;;;;;5118732;28;20030;-77
2023/08/19 10:26:55;;;;;;;15.50;10.77;;;26.50;92.80;;;;;;5136626;28;20027;-77
2023/08/19 10:29:21;;;;;;;15.50;12.32;;;26.60;92.40;;;;;;5118552;28;20024;-77
2023/08/19 10:31:46;;;;;;;17.30;12.50;;;26.60;92.40;;;;;;5101438;28;20024;-77
2023/08/19 10:34:25;;;;;;;18.08;12.85;;;26.70;92.40;;;;;;5101276;28;20095;-77
2023/08/19 10:37:08;;;;;;;18.95;12.60;;;26.70;92.00;;;;;;5136328;28;20540;-77
2023/08/19 10:39:33;;;;;;;17.98;11.48;;;26.80;92.10;;;;;;5118194;28;20053;-77
2023/08/19 10:41:59;;;;;;;18.20;12.57;;;26.80;92.00;;;;;;5117793;28;20075;-77
2023/08/19 10:44:27;;;;;;;17.48;12.07;;;26.80;92.10;;;;;;5118095;28;20043;-77
2023/08/19 10:47:08;;;;;;;18.63;12.75;;;26.80;92.10;;;;;;5118461;28;20012;-77
2023/08/19 10:49:34;;;;;;;17.33;12.00;;;26.90;92.10;;;;;;5136230;28;20041;-78
2023/08/19 10:52:06;;;;;;;17.10;12.13;;;26.80;92.40;;;;;;5100957;28;20047;-77
2023/08/19 10:54:41;;;;;;;20.48;12.93;;;26.90;92.50;;;;;;5118810;28;20031;-77
2023/08/19 10:57:09;;;;;;;16.85;12.57;;;26.90;92.40;;;;;;5117966;28;20135;-76
2023/08/19 10:59:36;;;;;;;16.20;12.70;;;27.00;92.10;;;;;;5135876;28;20030;-77
2023/08/19 11:02:04;;;;;;;16.70;12.32;;;27.00;92.30;;;;;;5100980;28;20023;-77
2023/08/19 11:04:31;;;;;;;18.52;12.73;;;27.00;91.80;;;;;;5118163;28;20024;-77
2023/08/19 11:06:57;;;;;;;16.20;13.02;;;27.00;91.70;;;;;;5117562;28;20044;-77
2023/08/19 11:09:24;;;;;;;21.00;12.65;;;27.00;91.80;;;;;;5117541;28;20032;-78
2023/08/19 11:11:50;;;;;;;20.40;13.25;;;27.10;91.70;;;;;;5117125;28;20032;-78
2023/08/19 11:14:17;;;;;;;21.83;14.63;;;27.00;91.50;;;;;;5135626;28;20028;-77
2023/08/19 11:16:54;;;;;;;18.58;13.60;;;27.00;91.60;;;;;;5135486;28;20045;-78
2023/08/19 11:19:21;;;;;;;21.23;14.00;;;27.00;91.50;;;;;;5135438;28;20022;-77
2023/08/19 11:21:47;;;;;;;21.15;14.55;;;26.90;91.40;;;;;;5135413;28;20016;-77
2023/08/19 11:24:13;;;;;;;18.48;13.40;;;26.80;91.30;;;;;;5117271;28;20023;-79
2023/08/19 11:26:43;;;;;;;18.65;14.05;;;26.80;91.30;;;;;;5117266;28;20554;-78
2023/08/19 11:29:09;;;;;;;22.35;14.65;;;26.80;91.70;;;;;;5135292;28;20110;-78
2023/08/19 11:31:36;;;;;;;19.98;13.85;;;26.70;91.50;;;;;;5117412;28;20020;-79
2023/08/19 11:34:09;;;;;;;20.98;14.75;;;26.70;91.50;;;;;;5135004;28;20020;-80
2023/08/19 11:36:36;;;;;;;19.67;12.93;;;26.60;91.40;;;;;;5117060;28;20045;-80
2023/08/19 11:39:04;;;;;;;17.15;13.13;;;26.60;91.20;;;;;;5117005;28;20027;-80
2023/08/19 11:41:30;;;;;;;18.05;12.55;;;26.50;91.10;;;;;;5117377;28;20015;-80
2023/08/19 11:43:57;;;;;;;16.55;12.23;;;26.50;91.00;;;;;;5134915;28;20023;-79
2023/08/19 11:46:32;;;;;;;16.95;11.88;;;26.50;91.10;;;;;;5134932;28;20053;-80
2023/08/19 11:49:01;;;;;;;17.55;12.50;;;26.40;91.10;;;;;;5118398;28;20023;-79
2023/08/19 11:51:28;;;;;;;14.38;9.80;;;26.40;91.10;;;;;;5117102;28;20028;-78
2023/08/19 11:53:59;;;;;;;12.73;9.18;;;26.30;90.90;;;;;;5099280;28;20035;-77
2023/08/19 11:56:25;;;;;;;11.70;8.73;;;26.30;90.90;;;;;;5134796;28;20039;-77
2023/08/19 11:58:52;;;;;;;14.85;9.98;;;26.20;90.90;;;;;;5099617;28;20031;-77
2023/08/19 12:01:19;;;;;;;16.08;9.43;;;26.20;91.10;;;;;;5116616;28;20027;-78
2023/08/19 12:03:47;;;;;;;13.57;9.05;;;26.20;91.30;;;;;;5134630;28;20067;-81
2023/08/19 12:06:13;;;;;;;14.13;8.90;;;26.10;91.10;;;;;;5116800;28;20047;-79
2023/08/19 12:08:41;;;;;;;14.57;9.35;;;26.10;91.10;;;;;;5134504;28;20023;-78
2023/08/19 12:11:08;;;;;;;17.20;10.02;;;26.10;91.20;;;;;;5083038;28;20517;-79
2023/08/19 12:13:34;;;;;;;15.88;10.43;;;26.00;91.30;;;;;;5134112;28;20051;-78
2023/08/19 12:15:59;;;;;;;16.52;9.68;;;26.00;91.40;;;;;;5134365;28;20410;-78
2023/08/19 12:18:25;;;;;;;13.45;9.25;;;26.00;91.50;;;;;;5134499;28;20019;-79
2023/08/19 12:20:52;;;;;;;14.10;9.80;;;26.00;91.60;;;;;;5099398;28;20122;-79
2023/08/19 12:23:18;;;;;;;14.50;10.07;;;26.00;91.60;;;;;;5134221;28;20033;-78
2023/08/19 12:25:57;;;;;;;15.07;10.23;;;26.00;91.60;;;;;;5134210;28;20051;-78
2023/08/19 12:28:24;;;;;;;18.42;10.55;;;25.90;91.50;;;;;;5134331;28;20039;-78